createdAt,value
2023-03-16T00:01:39.193Z,-0.13
2023-03-16T00:04:40.900Z,0.00
2023-03-16T00:07:44.040Z,0.10
2023-03-16T00:10:47.438Z,0.03
2023-03-16T00:13:49.141Z,-0.12
2023-03-16T00:16:50.752Z,-0.19
2023-03-16T00:19:57.169Z,-0.25
2023-03-16T00:23:00.831Z,-0.21
2023-03-16T00:26:03.526Z,-0.14
2023-03-16T00:29:05.179Z,0.02
2023-03-16T00:32:07.136Z,0.14
2023-03-16T00:35:09.853Z,0.20
2023-03-16T00:38:13.225Z,0.23
2023-03-16T00:41:15.688Z,0.17
2023-03-16T00:44:17.488Z,0.17
2023-03-16T00:47:19.073Z,0.19
2023-03-16T00:50:22.469Z,0.20
2023-03-16T00:53:25.536Z,0.15
2023-03-16T00:56:27.397Z,0.22
2023-03-16T00:59:30.509Z,0.27
2023-03-16T01:02:32.753Z,0.33
2023-03-16T01:05:34.241Z,0.28
2023-03-16T01:08:37.736Z,0.27
2023-03-16T01:11:39.601Z,0.18
2023-03-16T01:14:41.626Z,0.08
2023-03-16T01:17:43.218Z,0.00
2023-03-16T01:20:50.607Z,-0.05
2023-03-16T01:23:53.898Z,-0.16
2023-03-16T01:26:55.778Z,-0.26
2023-03-16T01:29:57.254Z,-0.25
2023-03-16T01:32:59.267Z,-0.28
2023-03-16T01:36:02.490Z,-0.35
2023-03-16T01:39:11.276Z,-0.39
2023-03-16T01:42:17.890Z,-0.42
2023-03-16T01:45:38.360Z,-0.42
2023-03-16T01:48:43.024Z,-0.50
2023-03-16T01:51:46.728Z,-0.51
2023-03-16T01:54:52.862Z,-0.50
2023-03-16T01:57:54.875Z,-0.51
2023-03-16T02:00:58.112Z,-0.55
2023-03-16T02:04:05.997Z,-0.54
2023-03-16T02:07:09.045Z,-0.50
2023-03-16T02:10:13.275Z,-0.53
2023-03-16T02:13:20.481Z,-0.60
2023-03-16T02:16:22.852Z,-0.58
2023-03-16T02:19:30.527Z,-0.58
2023-03-16T02:22:36.238Z,-0.63
2023-03-16T02:25:41.619Z,-0.66
2023-03-16T02:28:48.568Z,-0.68
2023-03-16T02:31:52.386Z,-0.67
2023-03-16T02:34:55.361Z,-0.65
2023-03-16T02:37:56.964Z,-0.62
2023-03-16T02:41:10.732Z,-0.57
2023-03-16T02:44:16.093Z,-0.59
2023-03-16T02:47:24.619Z,-0.70
2023-03-16T02:50:26.449Z,-0.66
2023-03-16T02:53:28.364Z,-0.74
2023-03-16T02:56:32.562Z,-0.84
2023-03-16T02:59:34.511Z,-0.83
2023-03-16T03:02:38.216Z,-0.77
2023-03-16T03:05:40.160Z,-0.79
2023-03-16T03:08:42.630Z,-0.82
2023-03-16T03:11:44.520Z,-0.87
2023-03-16T03:14:46.157Z,-0.79
2023-03-16T03:17:52.940Z,-0.78
2023-03-16T03:20:55.408Z,-0.82
2023-03-16T03:23:56.931Z,-0.78
2023-03-16T03:27:05.702Z,-0.74
2023-03-16T03:30:10.463Z,-0.71
2023-03-16T03:33:13.497Z,-0.74
2023-03-16T03:36:15.164Z,-0.69
2023-03-16T03:39:18.942Z,-0.73
2023-03-16T03:42:26.238Z,-0.76
2023-03-16T03:45:28.115Z,-0.82
2023-03-16T03:48:31.074Z,-0.82
2023-03-16T03:51:33.089Z,-0.77
2023-03-16T03:54:41.419Z,-0.74
2023-03-16T03:57:49.686Z,-0.73
2023-03-16T04:00:52.114Z,-0.72
2023-03-16T04:03:55.421Z,-0.76
2023-03-16T04:06:57.208Z,-0.75
2023-03-16T04:09:58.998Z,-0.77
2023-03-16T04:13:11.914Z,-0.82
2023-03-16T04:16:16.482Z,-0.89
2023-03-16T04:19:22.729Z,-0.90
2023-03-16T04:22:25.367Z,-0.89
2023-03-16T04:25:27.484Z,-0.96
2023-03-16T04:28:29.832Z,-0.97
2023-03-16T04:31:32.443Z,-0.93
2023-03-16T04:34:36.238Z,-0.94
2023-03-16T04:37:41.387Z,-0.95
2023-03-16T04:40:43.845Z,-0.95
2023-03-16T04:43:50.612Z,-0.92
2023-03-16T04:46:55.862Z,-0.95
2023-03-16T04:50:02.777Z,-0.96
2023-03-16T04:53:05.499Z,-0.94
2023-03-16T04:56:08.577Z,-0.90
2023-03-16T04:59:12.005Z,-0.89
2023-03-16T05:02:22.984Z,-0.86
2023-03-16T05:05:26.350Z,-0.84
2023-03-16T05:08:27.960Z,-0.82
2023-03-16T05:11:29.896Z,-0.88
2023-03-16T05:14:36.213Z,-0.87
2023-03-16T05:17:55.218Z,-0.89
2023-03-16T05:20:58.804Z,-0.86
2023-03-16T05:24:08.049Z,-0.89
2023-03-16T05:27:10.115Z,-0.88
2023-03-16T05:30:13.145Z,-0.92
2023-03-16T05:33:14.958Z,-0.93
2023-03-16T05:36:21.849Z,-0.93
2023-03-16T05:39:28.712Z,-0.90
2023-03-16T05:42:30.344Z,-0.84
2023-03-16T05:45:36.157Z,-0.84
2023-03-16T05:48:43.752Z,-0.79
2023-03-16T05:51:50.712Z,-0.74
2023-03-16T05:54:52.501Z,-0.72
2023-03-16T05:57:54.260Z,-0.70
2023-03-16T06:00:59.088Z,-0.69
2023-03-16T06:04:05.527Z,-0.67
2023-03-16T06:07:12.287Z,-0.57
2023-03-16T06:10:15.042Z,-0.46
2023-03-16T06:13:17.472Z,-0.45
2023-03-16T06:16:19.601Z,-0.42
2023-03-16T06:19:21.725Z,-0.38
2023-03-16T06:22:30.447Z,-0.32
2023-03-16T06:25:32.639Z,-0.33
2023-03-16T06:28:34.872Z,-0.26
2023-03-16T06:31:36.776Z,-0.16
2023-03-16T06:34:38.919Z,-0.08
2023-03-16T06:37:43.199Z,-0.06
2023-03-16T06:41:03.995Z,-0.03
2023-03-16T06:44:09.048Z,0.05
2023-03-16T06:47:15.475Z,0.12
2023-03-16T06:50:17.483Z,0.21
2023-03-16T06:53:22.106Z,0.33
2023-03-16T06:56:24.240Z,0.36
2023-03-16T06:59:26.246Z,0.52
2023-03-16T07:02:28.305Z,0.65
2023-03-16T07:05:30.370Z,0.77
2023-03-16T07:08:35.218Z,0.76
2023-03-16T07:11:37.690Z,0.76
2023-03-16T07:14:39.430Z,0.71
2023-03-16T07:17:44.037Z,0.75
2023-03-16T07:20:46.858Z,0.84
2023-03-16T07:23:51.971Z,0.90
2023-03-16T07:26:59.354Z,0.99
2023-03-16T07:30:06.188Z,1.11
2023-03-16T07:33:11.935Z,1.26
2023-03-16T07:36:14.510Z,1.39
2023-03-16T07:39:23.914Z,1.42
2023-03-16T07:42:29.458Z,1.61
2023-03-16T07:45:38.797Z,1.78
2023-03-16T07:48:42.547Z,1.92
2023-03-16T07:51:44.351Z,2.01
2023-03-16T07:54:48.922Z,1.97
2023-03-16T07:57:51.209Z,1.96
2023-03-16T08:01:01.713Z,2.06
2023-03-16T08:04:03.601Z,2.14
2023-03-16T08:07:05.691Z,2.25
2023-03-16T08:10:24.121Z,2.35
2023-03-16T08:13:56.634Z,2.48
2023-03-16T08:17:01.837Z,2.53
2023-03-16T08:20:08.444Z,2.58
2023-03-16T08:23:12.048Z,2.67
2023-03-16T08:26:18.328Z,2.73
2023-03-16T08:29:21.312Z,2.76
2023-03-16T08:32:23.544Z,2.84
2023-03-16T08:35:25.975Z,2.84
2023-03-16T08:38:28.017Z,2.91
2023-03-16T08:41:35.070Z,3.03
2023-03-16T08:44:41.563Z,3.10
2023-03-16T08:47:43.612Z,3.14
2023-03-16T08:50:47.062Z,3.25
2023-03-16T08:53:48.624Z,3.32
2023-03-16T08:56:51.929Z,3.38
2023-03-16T08:59:53.742Z,3.41
2023-03-16T09:02:55.757Z,3.52
2023-03-16T09:06:00.964Z,3.61
2023-03-16T09:09:02.649Z,3.87
2023-03-16T09:12:06.438Z,4.01
2023-03-16T09:15:10.179Z,4.18
2023-03-16T09:18:11.974Z,4.19
2023-03-16T09:21:14.005Z,4.05
2023-03-16T09:24:15.853Z,4.14
2023-03-16T09:27:19.016Z,4.39
2023-03-16T09:30:20.886Z,4.42
2023-03-16T09:33:22.944Z,4.45
2023-03-16T09:36:24.503Z,4.64
2023-03-16T09:39:26.229Z,4.68
2023-03-16T09:42:33.988Z,4.57
2023-03-16T09:45:38.675Z,4.71
2023-03-16T09:48:41.240Z,4.84
2023-03-16T09:51:44.844Z,4.88
2023-03-16T09:54:49.549Z,4.98
2023-03-16T09:57:53.526Z,5.27
2023-03-16T10:00:59.693Z,5.33
2023-03-16T10:04:19.732Z,5.44
2023-03-16T10:07:32.383Z,5.74
2023-03-16T10:10:47.611Z,5.78
2023-03-16T10:13:53.160Z,5.70
2023-03-16T10:16:57.041Z,5.77
2023-03-16T10:20:01.181Z,5.80
2023-03-16T10:23:13.640Z,5.93
2023-03-16T10:26:20.174Z,6.17
2023-03-16T10:29:23.631Z,6.34
2023-03-16T10:32:30.634Z,6.20
2023-03-16T10:35:38.260Z,6.05
2023-03-16T10:38:41.250Z,5.80
2023-03-16T10:41:44.033Z,5.89
2023-03-16T10:44:47.652Z,6.21
2023-03-16T10:47:50.063Z,6.43
2023-03-16T10:50:54.530Z,6.62
2023-03-16T10:54:07.015Z,6.70
2023-03-16T10:57:15.568Z,6.56
2023-03-16T11:00:21.257Z,6.39
2023-03-16T11:03:27.501Z,6.27
2023-03-16T11:06:32.544Z,6.34
2023-03-16T11:09:35.543Z,6.49
2023-03-16T11:12:39.873Z,6.26
2023-03-16T11:15:47.810Z,6.17
2023-03-16T11:18:53.573Z,6.06
2023-03-16T11:21:57.583Z,6.04
2023-03-16T11:25:07.307Z,6.03
2023-03-16T11:28:13.289Z,6.19
2023-03-16T11:31:20.875Z,6.14
2023-03-16T11:34:27.475Z,6.18
2023-03-16T11:37:35.695Z,6.23
2023-03-16T11:40:41.456Z,6.31
2023-03-16T11:43:53.262Z,6.46
2023-03-16T11:47:01.607Z,6.53
2023-03-16T11:50:09.985Z,6.55
2023-03-16T11:53:17.426Z,6.60
2023-03-16T11:56:24.063Z,6.80
2023-03-16T11:59:34.118Z,6.81
2023-03-16T12:02:45.282Z,6.78
2023-03-16T12:05:54.522Z,6.76
2023-03-16T12:09:23.789Z,6.94
2023-03-16T12:12:29.733Z,7.11
2023-03-16T12:15:36.263Z,6.98
2023-03-16T12:18:43.713Z,6.91
2023-03-16T12:21:48.583Z,6.91
2023-03-16T12:24:50.489Z,7.03
2023-03-16T12:27:55.465Z,7.26
2023-03-16T12:31:02.189Z,7.04
2023-03-16T12:34:19.491Z,7.05
2023-03-16T12:37:32.061Z,6.88
2023-03-16T12:40:40.589Z,6.84
2023-03-16T12:43:47.687Z,6.77
2023-03-16T12:46:53.540Z,6.84
2023-03-16T12:50:03.800Z,6.87
2023-03-16T12:53:05.874Z,6.90
2023-03-16T12:56:12.326Z,6.85
2023-03-16T12:59:16.896Z,6.79
2023-03-16T13:02:20.324Z,6.74
2023-03-16T13:05:31.475Z,6.68
2023-03-16T13:08:42.675Z,6.74
2023-03-16T13:11:50.017Z,6.71
2023-03-16T13:14:55.907Z,6.86
2023-03-16T13:18:17.597Z,6.92
2023-03-16T13:21:21.684Z,7.13
2023-03-16T13:24:26.933Z,7.20
2023-03-16T13:27:30.148Z,7.26
2023-03-16T13:30:33.166Z,7.23
2023-03-16T13:33:38.345Z,7.24
2023-03-16T13:36:41.833Z,7.18
2023-03-16T13:39:51.574Z,7.20
2023-03-16T13:42:55.383Z,7.16
2023-03-16T13:45:57.475Z,7.09
2023-03-16T13:49:02.402Z,7.03
2023-03-16T13:52:06.009Z,7.03
2023-03-16T13:55:14.743Z,7.03
2023-03-16T13:58:20.716Z,7.09
2023-03-16T14:01:24.857Z,7.11
2023-03-16T14:04:28.805Z,7.19
2023-03-16T14:07:36.724Z,7.27
2023-03-16T14:10:40.494Z,7.30
2023-03-16T14:13:42.874Z,7.32
2023-03-16T14:16:45.648Z,7.23
2023-03-16T14:19:48.267Z,7.23
2023-03-16T14:22:52.784Z,7.22
2023-03-16T14:25:54.817Z,7.19
2023-03-16T14:28:58.495Z,7.17
2023-03-16T14:32:00.450Z,7.11
2023-03-16T14:35:03.952Z,7.04
2023-03-16T14:38:28.570Z,6.98
2023-03-16T14:41:31.752Z,6.94
2023-03-16T14:44:35.640Z,6.92
2023-03-16T14:47:40.789Z,6.86
2023-03-16T14:50:45.052Z,6.88
2023-03-16T14:53:48.723Z,7.00
2023-03-16T14:56:51.183Z,7.07
2023-03-16T14:59:52.917Z,7.12
2023-03-16T15:02:58.102Z,7.09
2023-03-16T15:06:01.534Z,7.05
2023-03-16T15:09:04.627Z,7.01
2023-03-16T15:12:13.042Z,6.94
2023-03-16T15:15:16.152Z,6.84
2023-03-16T15:18:17.859Z,6.83
2023-03-16T15:21:21.142Z,6.76
2023-03-16T15:24:24.218Z,6.72
2023-03-16T15:27:28.119Z,6.75
2023-03-16T15:30:30.757Z,6.77
2023-03-16T15:33:32.565Z,6.74
2023-03-16T15:36:34.237Z,6.74
2023-03-16T15:39:37.916Z,6.74
2023-03-16T15:42:39.553Z,6.71
2023-03-16T15:45:41.322Z,6.71
2023-03-16T15:48:44.351Z,6.69
2023-03-16T15:51:46.185Z,6.69
2023-03-16T15:54:49.086Z,6.66
2023-03-16T15:57:57.162Z,6.66
2023-03-16T16:00:59.961Z,6.62
2023-03-16T16:04:01.716Z,6.61
2023-03-16T16:07:07.361Z,6.63
2023-03-16T16:10:12.515Z,6.61
2023-03-16T16:13:18.111Z,6.61
2023-03-16T16:16:20.240Z,6.63
2023-03-16T16:19:22.204Z,6.63
2023-03-16T16:22:24.718Z,6.65
2023-03-16T16:25:32.840Z,6.61
2023-03-16T16:28:35.128Z,6.60
2023-03-16T16:31:36.875Z,6.55
2023-03-16T16:34:38.712Z,6.56
2023-03-16T16:37:40.744Z,6.52
2023-03-16T16:40:46.406Z,6.46
2023-03-16T16:43:48.137Z,6.38
2023-03-16T16:46:50.880Z,6.37
2023-03-16T16:49:52.872Z,6.35
2023-03-16T16:52:55.549Z,6.27
2023-03-16T16:55:58.921Z,6.25
2023-03-16T16:59:02.540Z,6.23
2023-03-16T17:02:18.626Z,6.19
2023-03-16T17:05:21.542Z,6.16
2023-03-16T17:08:23.727Z,6.06
2023-03-16T17:11:30.936Z,5.98
2023-03-16T17:14:33.040Z,5.93
2023-03-16T17:17:34.756Z,5.85
2023-03-16T17:20:36.489Z,5.79
2023-03-16T17:23:38.584Z,5.78
2023-03-16T17:26:43.841Z,5.76
2023-03-16T17:29:45.949Z,5.69
2023-03-16T17:32:47.743Z,5.69
2023-03-16T17:35:49.397Z,5.61
2023-03-16T17:38:51.242Z,5.62
2023-03-16T17:41:57.454Z,5.65
2023-03-16T17:44:59.993Z,5.64
2023-03-16T17:48:02.414Z,5.57
2023-03-16T17:51:07.241Z,5.46
2023-03-16T17:54:09.000Z,5.50
2023-03-16T17:57:16.498Z,5.44
2023-03-16T18:00:19.449Z,5.41
2023-03-16T18:03:22.196Z,5.41
2023-03-16T18:06:25.563Z,5.33
2023-03-16T18:09:28.893Z,5.30
2023-03-16T18:12:32.768Z,5.26
2023-03-16T18:15:36.478Z,5.23
2023-03-16T18:18:40.270Z,5.27
2023-03-16T18:21:42.485Z,5.28
2023-03-16T18:24:45.017Z,5.18
2023-03-16T18:27:48.210Z,5.17
2023-03-16T18:30:54.225Z,5.15
2023-03-16T18:33:56.962Z,5.20
2023-03-16T18:37:00.820Z,5.18
2023-03-16T18:40:02.495Z,5.21
2023-03-16T18:43:06.437Z,5.22
2023-03-16T18:46:11.758Z,5.24
2023-03-16T18:49:14.973Z,5.20
2023-03-16T18:52:18.846Z,5.13
2023-03-16T18:55:21.482Z,5.09
2023-03-16T18:58:24.916Z,5.10
2023-03-16T19:01:27.717Z,5.10
2023-03-16T19:04:30.791Z,5.14
2023-03-16T19:07:33.891Z,5.07
2023-03-16T19:10:37.780Z,5.16
2023-03-16T19:13:42.182Z,5.15
2023-03-16T19:16:44.435Z,5.17
2023-03-16T19:19:46.150Z,5.07
2023-03-16T19:22:49.248Z,5.05
2023-03-16T19:25:51.519Z,5.03
2023-03-16T19:28:54.577Z,5.03
2023-03-16T19:31:56.632Z,5.16
2023-03-16T19:34:58.189Z,5.20
2023-03-16T19:37:59.915Z,5.27
2023-03-16T19:41:02.305Z,5.23
2023-03-16T19:44:08.362Z,5.36
2023-03-16T19:47:21.756Z,5.34
2023-03-16T19:50:24.318Z,5.39
2023-03-16T19:53:25.942Z,5.40
2023-03-16T19:56:27.580Z,5.42
2023-03-16T19:59:32.687Z,5.44
2023-03-16T20:02:36.335Z,5.34
2023-03-16T20:05:42.270Z,5.33
2023-03-16T20:08:44.258Z,5.38
2023-03-16T20:11:47.136Z,5.39
2023-03-16T20:14:51.272Z,5.41
2023-03-16T20:17:52.988Z,5.47
2023-03-16T20:20:54.616Z,5.42
2023-03-16T20:23:56.547Z,5.39
2023-03-16T20:26:58.228Z,5.35
2023-03-16T20:30:01.584Z,5.41
2023-03-16T20:33:03.680Z,5.42
2023-03-16T20:36:08.966Z,5.39
2023-03-16T20:39:10.909Z,5.39
2023-03-16T20:42:15.824Z,5.48
2023-03-16T20:45:20.909Z,5.46
2023-03-16T20:48:25.508Z,5.43
2023-03-16T20:51:27.471Z,5.37
2023-03-16T20:54:29.116Z,5.30
2023-03-16T20:57:31.364Z,5.31
2023-03-16T21:00:36.493Z,5.31
2023-03-16T21:03:39.430Z,5.33
2023-03-16T21:06:41.432Z,5.30
2023-03-16T21:09:49.906Z,5.32
2023-03-16T21:12:53.381Z,5.28
2023-03-16T21:15:58.102Z,5.26
2023-03-16T21:18:59.830Z,5.19
2023-03-16T21:22:01.958Z,5.17
2023-03-16T21:25:03.791Z,5.17
2023-03-16T21:28:05.716Z,5.30
2023-03-16T21:31:11.217Z,5.30
2023-03-16T21:34:21.962Z,5.25
2023-03-16T21:37:26.429Z,5.27
2023-03-16T21:40:28.436Z,5.24
2023-03-16T21:43:31.273Z,5.33
2023-03-16T21:46:34.483Z,5.29
2023-03-16T21:49:36.365Z,5.23
2023-03-16T21:52:41.355Z,5.35
2023-03-16T21:55:43.086Z,5.41
2023-03-16T21:58:45.790Z,5.45
2023-03-16T22:02:01.084Z,5.48
2023-03-16T22:05:12.019Z,5.44
2023-03-16T22:08:15.034Z,5.44
2023-03-16T22:11:18.028Z,5.38
2023-03-16T22:14:20.029Z,5.46
2023-03-16T22:17:23.266Z,5.37
2023-03-16T22:20:27.219Z,5.36
2023-03-16T22:23:31.874Z,5.31
2023-03-16T22:26:33.625Z,5.30
2023-03-16T22:29:36.515Z,5.26
2023-03-16T22:32:39.594Z,5.33
2023-03-16T22:35:42.207Z,5.29
2023-03-16T22:38:44.360Z,5.23
2023-03-16T22:41:46.427Z,5.28
2023-03-16T22:44:48.323Z,5.25
2023-03-16T22:47:51.837Z,5.23
2023-03-16T22:50:54.382Z,5.29
2023-03-16T22:53:59.672Z,5.24
2023-03-16T22:57:01.675Z,5.29
2023-03-16T23:00:07.427Z,5.23
2023-03-16T23:03:15.473Z,5.26
2023-03-16T23:06:18.399Z,5.24
2023-03-16T23:09:21.894Z,5.23
2023-03-16T23:12:23.938Z,5.21
2023-03-16T23:15:27.742Z,5.22
2023-03-16T23:18:31.032Z,5.17
2023-03-16T23:21:33.252Z,5.16
2023-03-16T23:24:36.208Z,5.18
2023-03-16T23:27:38.236Z,5.16
2023-03-16T23:30:40.054Z,5.08
2023-03-16T23:33:43.614Z,5.14
2023-03-16T23:36:45.591Z,5.12
2023-03-16T23:39:47.362Z,5.06
2023-03-16T23:42:50.107Z,5.04
2023-03-16T23:45:52.232Z,5.05
2023-03-16T23:48:57.382Z,5.05
2023-03-16T23:52:10.181Z,5.01
2023-03-16T23:55:18.859Z,5.05
2023-03-16T23:58:21.026Z,5.05
